Terminal Aerodrome Forecast
Issued by NWS St Louis, MO

Home | Current Version | Previous Version | Text Only | Print | Product List | Glossary On
Versions: 1 2 3 4 5 6 7 8 9 10 11 12 13 14 15 16 17 18 19 20 21 22 23 24 25
765
FTUS43 KLSX 151702 AAB
TAFCOU
TAF AMD
KCOU 151702Z 1517/1612 09005KT 3SM -FZRA BR OVC006
     FM151800 06005KT 5SM -SHRA BR OVC006
     FM160000 09007KT P6SM VCSH OVC008=

USA.gov is the U.S. government's official web portal to all federal, state and local government web resources and services.